Bahawalpur Weather



Bahawalpur's Current Weather

Temprature 25.39o clear sky

clear sky

Rain: 0 %

Min Temprature25.39o
Max Temprature25.39o
Humidity26
Wind Speed2.96 m/h
Sun Rise05:53:19
Sun Set18:35:52
Current Time: 09-Apr-2020 02:33:07
Lat/Lon: 29.4, 71.68




Bahawalpur's Geo Location



Bahawalpur's Weather Forecast

Time Overall Temp Min Temp Max Temp Humidity Wind Speed Rain
09-Apr-2020 (Thu)
05:00:00 clear sky 24.250 24.250 24.250 28 3.13 m/h 0 %
08:00:00 scattered clouds 27.930 27.930 27.930 23 3.01 m/h 0 %
11:00:00 few clouds 33.900 33.900 33.900 15 4.9 m/h 0 %
14:00:00 broken clouds 36.830 36.830 36.830 11 4.47 m/h 0 %
17:00:00 overcast clouds 36.590 36.590 36.590 11 3.73 m/h 0 %
20:00:00 overcast clouds 31.530 31.530 31.530 15 1.4 m/h 0 %
23:00:00 broken clouds 29.120 29.120 29.120 19 1.67 m/h 0 %
10-Apr-2020 (Fri)
02:00:00 clear sky 28.270 28.270 28.270 19 1.91 m/h 0 %
05:00:00 clear sky 25.470 25.470 25.470 24 3 m/h 0 %
08:00:00 scattered clouds 26.770 26.770 26.770 30 5.53 m/h 0 %
11:00:00 few clouds 33.650 33.650 33.650 20 6.49 m/h 0 %
14:00:00 clear sky 36.590 36.590 36.590 15 5.64 m/h 0 %
17:00:00 few clouds 35.460 35.460 35.460 17 5.28 m/h 0 %
20:00:00 few clouds 30.230 30.230 30.230 24 3.98 m/h 0 %
23:00:00 clear sky 27.890 27.890 27.890 29 4.13 m/h 0 %
11-Apr-2020 (Sat)
02:00:00 overcast clouds 26.610 26.610 26.610 32 4.59 m/h 0 %
05:00:00 broken clouds 24.990 24.990 24.990 36 3.87 m/h 0 %
08:00:00 few clouds 28.590 28.590 28.590 30 4.42 m/h 0 %
11:00:00 clear sky 35.000 35.000 35.000 18 2.93 m/h 0 %
14:00:00 clear sky 37.970 37.970 37.970 13 1.84 m/h 0 %
17:00:00 scattered clouds 38.400 38.400 38.400 12 3.36 m/h 0 %
20:00:00 broken clouds 33.160 33.160 33.160 17 2.26 m/h 0 %
23:00:00 broken clouds 30.370 30.370 30.370 21 1.07 m/h 0 %
12-Apr-2020 (Sun)
02:00:00 broken clouds 29.290 29.290 29.290 22 1.26 m/h 0 %
05:00:00 broken clouds 27.640 27.640 27.640 24 2.04 m/h 0 %
08:00:00 broken clouds 31.400 31.400 31.400 19 2.46 m/h 0 %
11:00:00 broken clouds 37.760 37.760 37.760 13 1.29 m/h 0 %
14:00:00 scattered clouds 41.450 41.450 41.450 8 4.47 m/h 0 %
17:00:00 few clouds 41.280 41.280 41.280 8 4.38 m/h 0 %
20:00:00 few clouds 34.120 34.120 34.120 15 1.91 m/h 0 %
23:00:00 scattered clouds 31.740 31.740 31.740 18 2.37 m/h 0 %
13-Apr-2020 (Mon)
02:00:00 broken clouds 30.560 30.560 30.560 19 1.83 m/h 0 %
05:00:00 broken clouds 28.950 28.950 28.950 21 1.87 m/h 0 %
08:00:00 overcast clouds 33.260 33.260 33.260 17 2.64 m/h 0 %
11:00:00 broken clouds 39.600 39.600 39.600 11 1.7 m/h 0 %
14:00:00 clear sky 42.230 42.230 42.230 8 2.82 m/h 0 %
17:00:00 few clouds 42.140 42.140 42.140 7 2.97 m/h 0 %
20:00:00 few clouds 36.250 36.250 36.250 10 2.43 m/h 0 %
23:00:00 clear sky 34.160 34.160 34.160 10 4.01 m/h 0 %
14-Apr-2020 (Tue)
02:00:00 few clouds 31.780 31.780 31.780 10 5.81 m/h 0 %


Bahawalpur's Tourist Spots

Historical Places in Bahawalpur

Famous Cities (61)